Time;durP1;ratioP1;P1;durP2;ratioP2;P2;SDS_P1;SDS_P2;PMS_P1;PMS_P2;Temp;Humidity;BMP_temperature;BMP_pressure;BME280_temperature;BME280_humidity;BME280_pressure;Samples;Min_cycle;Max_cycle;Signal;HPM_P1;HPM_P2
2023/12/01 00:00:36;;;;;;;143.10;98.50;;;;;;;-0.71;88.01;96413.36;109618;1289;23000;-84
2023/12/01 00:03:24;;;;;;;148.00;104.40;;;;;;;-0.66;88.01;96404.33;109611;1283;22157;-85
2023/12/01 00:05:52;;;;;;;147.30;103.00;;;;;;;-0.64;87.95;96411.10;109611;1283;22417;-88
2023/12/01 00:08:20;;;;;;;146.40;104.50;;;;;;;-0.62;88.09;96411.63;109604;1289;22251;-87
2023/12/01 00:10:48;;;;;;;142.20;101.60;;;;;;;-0.60;88.01;96412.42;109608;1289;22210;-88
2023/12/01 00:13:16;;;;;;;151.80;103.20;;;;;;;-0.61;87.98;96407.23;109617;1283;22238;-85
2023/12/01 00:15:44;;;;;;;138.10;99.90;;;;;;;-0.60;87.99;96401.21;109477;1282;22230;-86
2023/12/01 00:18:12;;;;;;;130.90;95.90;;;;;;;-0.57;88.00;96403.70;109603;1283;23029;-87
2023/12/01 00:20:40;;;;;;;135.40;94.30;;;;;;;-0.51;88.03;96406.77;109618;1283;22319;-83
2023/12/01 00:23:08;;;;;;;131.80;96.00;;;;;;;-0.48;87.72;96406.55;109609;1282;22995;-83
2023/12/01 00:25:36;;;;;;;144.20;100.70;;;;;;;-0.44;88.13;96405.76;109622;1281;22308;-84
2023/12/01 00:28:04;;;;;;;156.80;105.40;;;;;;;-0.38;88.42;96415.13;109592;1283;22290;-85
2023/12/01 00:30:32;;;;;;;144.70;100.20;;;;;;;-0.36;88.30;96417.15;109591;1289;22149;-80
2023/12/01 00:33:04;;;;;;;150.00;105.00;;;;;;;-0.35;88.31;96402.39;109625;1290;22237;-83
2023/12/01 00:35:32;;;;;;;148.10;103.20;;;;;;;-0.34;88.27;96408.63;109551;1289;22147;-83
2023/12/01 00:38:00;;;;;;;151.00;105.60;;;;;;;-0.37;88.11;96419.09;109640;1286;22193;-82
2023/12/01 00:40:29;;;;;;;137.80;97.20;;;;;;;-0.48;88.48;96420.05;109512;1273;22272;-82
2023/12/01 00:42:56;;;;;;;121.90;88.90;;;;;;;-0.60;88.83;96419.20;109617;1286;22929;-82
2023/12/01 00:45:25;;;;;;;120.00;86.70;;;;;;;-0.68;89.29;96411.88;109505;1289;22405;-82
2023/12/01 00:47:53;;;;;;;127.20;92.00;;;;;;;-0.73;89.19;96409.48;109598;1290;22843;-90
2023/12/01 00:50:21;;;;;;;125.40;91.70;;;;;;;-0.72;89.26;96413.79;109620;1274;22263;-84
2023/12/01 00:52:49;;;;;;;154.40;104.00;;;;;;;-0.69;89.34;96415.80;109578;1290;22176;-84
2023/12/01 00:55:17;;;;;;;152.60;102.80;;;;;;;-0.72;89.50;96424.58;109599;1281;22883;-84
2023/12/01 00:57:45;;;;;;;152.40;99.80;;;;;;;-0.79;89.65;96432.60;109724;1290;22177;-82
2023/12/01 01:00:13;;;;;;;143.20;98.00;;;;;;;-0.85;89.52;96425.67;109648;1286;23077;-84
2023/12/01 01:02:41;;;;;;;151.30;102.30;;;;;;;-0.81;89.55;96416.20;109683;1289;22980;-86
2023/12/01 01:05:09;;;;;;;136.70;96.30;;;;;;;-0.72;89.70;96432.98;109626;1290;22235;-86
2023/12/01 01:07:37;;;;;;;120.70;92.00;;;;;;;-0.69;89.68;96427.45;109628;1290;22235;-85
2023/12/01 01:10:06;;;;;;;140.80;97.80;;;;;;;-0.63;89.84;96423.16;109704;1281;22280;-86
2023/12/01 01:12:34;;;;;;;146.70;101.20;;;;;;;-0.57;90.19;96427.13;109481;1290;23248;-83
2023/12/01 01:15:03;;;;;;;125.10;94.60;;;;;;;-0.52;90.03;96428.47;109627;1274;22324;-86
2023/12/01 01:17:32;;;;;;;132.90;97.40;;;;;;;-0.55;89.56;96428.83;109454;1281;228594;-85
2023/12/01 01:20:00;;;;;;;131.60;92.80;;;;;;;-0.66;89.84;96445.75;109478;1286;22189;-86
2023/12/01 01:22:28;;;;;;;118.70;87.90;;;;;;;-0.79;90.03;96445.09;109606;1273;22327;-86
2023/12/01 01:24:56;;;;;;;113.40;86.30;;;;;;;-0.83;90.09;96432.13;109584;1286;22865;-84
2023/12/01 01:27:24;;;;;;;117.40;86.10;;;;;;;-0.76;90.41;96427.01;109506;1286;22367;-84
2023/12/01 01:29:52;;;;;;;113.60;88.60;;;;;;;-0.69;90.28;96436.43;109561;1277;22234;-84
2023/12/01 01:32:20;;;;;;;127.70;89.80;;;;;;;-0.71;90.48;96441.51;109584;1283;22350;-84
2023/12/01 01:34:48;;;;;;;107.80;84.40;;;;;;;-0.76;90.31;96449.90;109607;1284;23001;-84
2023/12/01 01:37:17;;;;;;;119.50;89.00;;;;;;;-0.82;90.61;96447.73;109565;1290;23061;-82
2023/12/01 01:39:45;;;;;;;106.00;88.70;;;;;;;-0.87;90.40;96454.90;109602;1283;23017;-84
2023/12/01 01:42:13;;;;;;;112.20;86.20;;;;;;;-0.88;90.39;96446.92;109686;1289;22248;-83
2023/12/01 01:44:41;;;;;;;108.10;83.60;;;;;;;-0.86;90.45;96436.29;109577;1289;23094;-84
2023/12/01 01:47:09;;;;;;;94.30;80.30;;;;;;;-0.81;90.27;96430.27;109625;1274;22204;-85
2023/12/01 01:49:38;;;;;;;102.70;82.10;;;;;;;-0.75;90.46;96421.66;109599;1274;22268;-84
2023/12/01 01:52:06;;;;;;;121.40;90.80;;;;;;;-0.68;90.64;96412.36;109623;1290;22213;-84
2023/12/01 01:54:34;;;;;;;125.10;91.10;;;;;;;-0.66;90.32;96407.77;109617;1289;22234;-85
2023/12/01 01:57:02;;;;;;;128.30;92.20;;;;;;;-0.64;90.76;96412.75;109624;1283;22842;-84
2023/12/01 01:59:30;;;;;;;117.30;90.70;;;;;;;-0.65;90.42;96425.01;109533;1277;22221;-84
2023/12/01 02:01:58;;;;;;;106.90;84.50;;;;;;;-0.72;90.54;96433.99;109522;1283;22206;-84
2023/12/01 02:04:27;;;;;;;84.30;74.90;;;;;;;-0.86;90.82;96423.45;109632;1277;22198;-83
2023/12/01 02:06:55;;;;;;;96.30;76.60;;;;;;;-0.93;91.23;96433.48;109628;1277;22311;-84
2023/12/01 02:09:23;;;;;;;91.70;76.00;;;;;;;-0.99;90.89;96432.66;109510;1278;22215;-82
2023/12/01 02:11:51;;;;;;;102.50;81.10;;;;;;;-1.01;90.71;96434.41;109512;1286;22260;-82
2023/12/01 02:14:21;;;;;;;107.00;85.70;;;;;;;-1.02;91.00;96434.67;109490;1286;22190;-81
2023/12/01 02:16:50;;;;;;;108.70;84.40;;;;;;;-1.00;91.24;96437.06;109652;1290;22941;-82
2023/12/01 02:19:18;;;;;;;89.40;79.30;;;;;;;-0.96;91.22;96449.05;109565;1283;23199;-81
2023/12/01 02:21:47;;;;;;;97.80;79.50;;;;;;;-1.02;91.18;96469.09;109491;1289;22809;-82
2023/12/01 02:24:15;;;;;;;89.50;74.30;;;;;;;-1.13;91.46;96470.36;109572;1289;22146;-83
2023/12/01 02:26:43;;;;;;;98.10;78.50;;;;;;;-1.23;92.22;96474.40;109575;1290;22998;-81
2023/12/01 02:29:11;;;;;;;113.60;85.90;;;;;;;-1.34;92.66;96473.55;109582;1274;22228;-83
2023/12/01 02:31:39;;;;;;;111.60;88.10;;;;;;;-1.45;92.55;96460.50;109492;1289;22999;-81
2023/12/01 02:34:07;;;;;;;129.90;94.80;;;;;;;-1.50;92.10;96456.99;109505;1286;22245;-82
2023/12/01 02:36:35;;;;;;;101.00;86.10;;;;;;;-1.50;92.29;96454.67;109574;1277;22962;-82
2023/12/01 02:39:03;;;;;;;94.60;80.90;;;;;;;-1.47;92.11;96453.89;109596;1286;22194;-80
2023/12/01 02:41:31;;;;;;;112.00;84.30;;;;;;;-1.48;91.78;96455.79;109742;1274;22242;-82
2023/12/01 02:43:59;;;;;;;96.40;79.90;;;;;;;-1.51;92.20;96457.98;109830;1290;22056;-82
2023/12/01 02:46:27;;;;;;;101.90;80.00;;;;;;;-1.51;92.04;96459.67;109798;1283;22135;-89
2023/12/01 02:48:55;;;;;;;113.20;82.10;;;;;;;-1.46;92.02;96443.37;109672;1277;22206;-88
2023/12/01 02:51:24;;;;;;;107.50;85.40;;;;;;;-1.44;91.70;96441.23;109644;1289;22177;-88
2023/12/01 02:53:52;;;;;;;104.00;84.40;;;;;;;-1.46;91.50;96456.95;109525;1290;23172;-88
2023/12/01 02:56:20;;;;;;;101.30;83.30;;;;;;;-1.47;92.12;96464.14;109620;1277;22218;-86
2023/12/01 02:58:48;;;;;;;114.80;88.30;;;;;;;-1.54;92.20;96448.10;109515;1286;22774;-87
2023/12/01 03:01:16;;;;;;;102.90;81.60;;;;;;;-1.57;91.79;96441.15;109709;1274;22409;-85
2023/12/01 03:03:44;;;;;;;89.80;78.60;;;;;;;-1.61;91.67;96437.70;109630;1290;22343;-83
2023/12/01 03:06:12;;;;;;;91.30;76.90;;;;;;;-1.57;91.77;96457.59;109613;1277;22454;-86
2023/12/01 03:08:40;;;;;;;92.10;78.40;;;;;;;-1.55;92.12;96465.15;109556;1290;22226;-84
2023/12/01 03:11:08;;;;;;;85.00;75.50;;;;;;;-1.56;92.18;96464.92;109646;1286;22185;-85
2023/12/01 03:13:36;;;;;;;88.00;77.00;;;;;;;-1.58;92.66;96454.56;109613;1289;22978;-86
2023/12/01 03:16:05;;;;;;;90.60;80.70;;;;;;;-1.60;92.47;96449.08;109695;1289;22234;-82
2023/12/01 03:18:35;;;;;;;87.40;78.40;;;;;;;-1.61;92.44;96446.11;109540;1274;22217;-85
2023/12/01 03:21:11;;;;;;;87.30;75.60;;;;;;;-1.62;92.03;96449.32;109732;1274;22222;-86
2023/12/01 03:23:40;;;;;;;78.80;70.50;;;;;;;-1.62;91.85;96456.72;109706;1276;22231;-86
2023/12/01 03:26:08;;;;;;;76.00;67.90;;;;;;;-1.62;91.93;96448.89;109592;1277;22213;-86
2023/12/01 03:28:36;;;;;;;80.90;72.10;;;;;;;-1.59;92.02;96454.83;109617;1283;22996;-86
2023/12/01 03:31:04;;;;;;;73.20;65.10;;;;;;;-1.59;92.24;96458.73;109805;1286;22229;-81
2023/12/01 03:33:32;;;;;;;76.40;68.70;;;;;;;-1.63;92.20;96464.64;109889;1289;22151;-81
2023/12/01 03:36:00;;;;;;;86.10;76.50;;;;;;;-1.66;92.18;96463.08;109786;1277;22222;-88
2023/12/01 03:38:28;;;;;;;86.70;77.60;;;;;;;-1.69;92.31;96467.66;109593;1290;22328;-87
2023/12/01 03:40:57;;;;;;;84.80;75.70;;;;;;;-1.68;92.59;96459.73;109550;1290;22239;-86
2023/12/01 03:43:25;;;;;;;81.90;73.20;;;;;;;-1.63;92.75;96450.85;109501;1281;22248;-83
2023/12/01 03:45:53;;;;;;;80.40;71.50;;;;;;;-1.54;92.64;96454.33;109597;1286;22906;-87
2023/12/01 03:48:21;;;;;;;78.00;70.30;;;;;;;-1.49;92.23;96439.88;109532;1284;22231;-85
2023/12/01 03:50:50;;;;;;;82.40;73.50;;;;;;;-1.44;92.23;96443.39;109626;1290;22167;-87
2023/12/01 03:53:18;;;;;;;91.60;77.00;;;;;;;-1.42;92.58;96461.41;109642;1285;22173;-85
2023/12/01 03:55:46;;;;;;;85.40;76.30;;;;;;;-1.42;92.50;96461.99;109535;1290;22848;-86
2023/12/01 03:58:14;;;;;;;84.40;75.60;;;;;;;-1.40;92.65;96466.29;109621;1277;22181;-84
2023/12/01 04:00:42;;;;;;;82.60;73.20;;;;;;;-1.46;92.88;96457.75;109593;1289;22106;-85
2023/12/01 04:03:10;;;;;;;76.90;69.40;;;;;;;-1.49;92.62;96443.48;109602;1289;23120;-84
2023/12/01 04:05:38;;;;;;;78.50;70.90;;;;;;;-1.46;92.59;96438.41;109608;1290;22238;-85
2023/12/01 04:08:06;;;;;;;79.70;71.60;;;;;;;-1.41;92.55;96433.63;109599;1289;22227;-84
2023/12/01 04:10:34;;;;;;;76.50;68.80;;;;;;;-1.38;92.40;96443.63;109624;1289;22228;-86
2023/12/01 04:13:08;;;;;;;79.10;71.00;;;;;;;-1.40;92.63;96455.56;109630;1289;22289;-85
2023/12/01 04:15:37;;;;;;;83.90;74.70;;;;;;;-1.43;92.65;96447.73;109485;1290;23004;-85
2023/12/01 04:18:06;;;;;;;93.70;80.20;;;;;;;-1.45;92.66;96452.15;109594;1283;22277;-84
2023/12/01 04:20:36;;;;;;;94.90;80.30;;;;;;;-1.49;92.68;96451.30;109505;1290;22219;-85
2023/12/01 04:23:10;;;;;;;86.60;77.20;;;;;;;-1.50;92.81;96450.65;109458;1291;22276;-85
2023/12/01 04:25:39;;;;;;;78.90;70.80;;;;;;;-1.48;92.81;96442.90;109502;1280;22250;-85
2023/12/01 04:28:07;;;;;;;81.20;72.90;;;;;;;-1.42;92.83;96440.34;109620;1290;22948;-85
2023/12/01 04:30:35;;;;;;;79.10;70.80;;;;;;;-1.33;92.87;96439.73;109640;1289;23122;-88
2023/12/01 04:33:03;;;;;;;77.10;68.90;;;;;;;-1.26;92.94;96437.17;109733;1281;22273;-86
2023/12/01 04:35:33;;;;;;;79.60;71.90;;;;;;;-1.22;92.89;96427.63;109607;1289;22295;-82
2023/12/01 04:38:04;;;;;;;84.30;74.00;;;;;;;-1.22;92.88;96429.90;109548;1289;22205;-80
2023/12/01 04:40:32;;;;;;;125.10;97.60;;;;;;;-1.23;92.96;96441.58;109688;1285;22105;-80
2023/12/01 04:43:01;;;;;;;91.40;81.50;;;;;;;-1.23;93.02;96435.39;109648;1289;22219;-81
2023/12/01 04:45:35;;;;;;;86.40;77.20;;;;;;;-1.25;92.93;96445.36;109589;1290;22296;-80
2023/12/01 04:48:03;;;;;;;80.50;72.00;;;;;;;-1.27;92.68;96448.31;109619;1287;22881;-81
2023/12/01 04:50:31;;;;;;;81.10;72.00;;;;;;;-1.33;92.57;96452.27;109689;1276;22231;-80
2023/12/01 04:53:01;;;;;;;82.80;73.30;;;;;;;-1.32;92.83;96462.63;109685;1289;22429;-80
2023/12/01 04:55:30;;;;;;;89.60;78.90;;;;;;;-1.29;92.77;96451.74;109669;1287;22235;-81
2023/12/01 04:57:58;;;;;;;85.40;76.20;;;;;;;-1.29;92.61;96441.18;109621;1276;22231;-79
2023/12/01 05:00:27;;;;;;;75.50;68.00;;;;;;;-1.28;92.64;96438.11;109682;1289;22263;-79
2023/12/01 05:02:56;;;;;;;78.70;70.70;;;;;;;-1.32;92.62;96450.14;109672;1286;22246;-80
2023/12/01 05:05:30;;;;;;;85.50;75.00;;;;;;;-1.33;92.94;96433.60;109677;1281;22314;-79
2023/12/01 05:08:00;;;;;;;169.90;95.70;;;;;;;-1.34;93.15;96432.48;109680;1289;23266;-79
2023/12/01 05:10:30;;;;;;;179.30;91.00;;;;;;;-1.37;92.94;96436.45;109693;1289;22191;-81
2023/12/01 05:13:00;;;;;;;111.90;73.40;;;;;;;-1.39;93.10;96447.58;109681;1289;22225;-80
2023/12/01 05:15:30;;;;;;;70.20;57.40;;;;;;;-1.39;93.03;96452.08;109672;1289;22200;-80
2023/12/01 05:18:00;;;;;;;58.80;52.10;;;;;;;-1.39;93.00;96458.67;109582;1287;23035;-81
2023/12/01 05:20:29;;;;;;;58.10;52.00;;;;;;;-1.34;92.88;96453.73;109589;1290;22195;-80
2023/12/01 05:22:59;;;;;;;59.60;53.30;;;;;;;-1.30;93.16;96455.23;109573;1290;22115;-80
2023/12/01 05:25:32;;;;;;;60.00;53.70;;;;;;;-1.23;93.41;96459.39;109572;1290;22970;-80
2023/12/01 05:28:03;;;;;;;59.30;53.50;;;;;;;-1.17;93.61;96457.19;109577;1290;22253;-82
2023/12/01 05:30:33;;;;;;;60.70;54.50;;;;;;;-1.11;93.68;96463.98;109590;1289;22956;-79
2023/12/01 05:33:09;;;;;;;69.10;60.20;;;;;;;-1.09;93.46;96476.92;109665;1279;22998;-81
2023/12/01 05:35:38;;;;;;;61.70;55.00;;;;;;;-1.11;93.27;96474.48;109667;1289;22123;-82
2023/12/01 05:38:07;;;;;;;60.00;53.60;;;;;;;-1.13;93.32;96467.09;109488;1290;22252;-81
2023/12/01 05:40:36;;;;;;;60.20;53.50;;;;;;;-1.11;93.34;96471.16;109613;1290;22126;-80
2023/12/01 05:43:06;;;;;;;64.40;57.50;;;;;;;-1.04;93.29;96471.09;109571;1283;22214;-80
2023/12/01 05:45:36;;;;;;;64.80;58.50;;;;;;;-1.04;93.06;96467.34;109595;1290;22867;-80
2023/12/01 05:48:08;;;;;;;101.30;74.20;;;;;;;-1.06;92.95;96468.45;109575;1286;22287;-80
2023/12/01 05:50:42;;;;;;;78.90;67.70;;;;;;;-1.10;93.09;96474.77;109600;1287;22248;-80
2023/12/01 05:53:13;;;;;;;72.60;65.40;;;;;;;-1.15;93.11;96474.70;109549;1275;22182;-78
2023/12/01 05:55:41;;;;;;;69.10;62.00;;;;;;;-1.21;93.22;96471.40;109586;1279;22217;-81
2023/12/01 05:58:13;;;;;;;66.40;60.00;;;;;;;-1.23;93.16;96485.80;109571;1289;22396;-79
2023/12/01 06:00:41;;;;;;;67.20;60.50;;;;;;;-1.22;93.42;96496.29;109549;1290;22098;-81
2023/12/01 06:03:11;;;;;;;67.40;60.60;;;;;;;-1.16;93.52;96485.36;109576;1289;22206;-80
2023/12/01 06:05:40;;;;;;;65.70;58.80;;;;;;;-1.07;93.44;96481.77;109555;1290;22212;-81
2023/12/01 06:08:08;;;;;;;65.20;58.40;;;;;;;-1.00;93.42;96477.45;109583;1284;22264;-82
2023/12/01 06:10:37;;;;;;;64.60;58.30;;;;;;;-0.90;93.28;96483.55;109568;1279;22234;-82
2023/12/01 06:13:05;;;;;;;66.60;60.00;;;;;;;-0.85;93.20;96487.98;109566;1286;22247;-82
2023/12/01 06:15:33;;;;;;;73.60;65.90;;;;;;;-0.84;92.99;96489.50;109624;1289;22160;-80
2023/12/01 06:18:02;;;;;;;77.10;69.20;;;;;;;-0.85;92.94;96492.19;109600;1289;22222;-81
2023/12/01 06:20:31;;;;;;;80.50;72.20;;;;;;;-0.87;93.00;96488.33;109696;1287;22299;-82
2023/12/01 06:23:05;;;;;;;81.90;73.50;;;;;;;-0.90;92.91;96486.57;109698;1286;22259;-81
2023/12/01 06:25:37;;;;;;;96.30;84.20;;;;;;;-0.93;93.14;96484.23;109660;1283;22329;-81
2023/12/01 06:28:08;;;;;;;89.40;79.90;;;;;;;-0.93;93.25;96481.50;109609;1286;22228;-81
2023/12/01 06:30:37;;;;;;;82.80;74.30;;;;;;;-0.95;93.05;96478.77;109643;1289;22320;-83
2023/12/01 06:33:06;;;;;;;83.00;74.40;;;;;;;-0.98;92.81;96471.16;109691;1289;22903;-79
2023/12/01 06:35:36;;;;;;;84.70;75.70;;;;;;;-0.97;92.95;96471.90;109682;1285;22352;-80
2023/12/01 06:38:06;;;;;;;71.10;63.70;;;;;;;-0.92;92.84;96477.48;109622;1287;22313;-80
2023/12/01 06:40:34;;;;;;;79.60;71.00;;;;;;;-0.93;92.65;96496.93;109659;1285;22241;-83
2023/12/01 06:43:09;;;;;;;106.30;85.60;;;;;;;-0.94;92.59;96505.17;109655;1289;22233;-82
2023/12/01 06:45:41;;;;;;;82.80;73.70;;;;;;;-0.98;92.44;96500.66;109621;1282;22259;-81
2023/12/01 06:48:11;;;;;;;94.80;81.70;;;;;;;-1.03;92.65;96492.55;109685;1289;22796;-80
2023/12/01 06:50:40;;;;;;;128.90;96.40;;;;;;;-1.05;92.91;96488.95;109665;1284;22270;-80
2023/12/01 06:53:08;;;;;;;157.30;110.40;;;;;;;-1.08;93.00;96482.33;109658;1289;22867;-80
2023/12/01 06:55:36;;;;;;;170.90;111.70;;;;;;;-1.15;92.53;96487.43;109668;1281;22151;-84
2023/12/01 06:58:04;;;;;;;186.20;124.10;;;;;;;-1.18;92.85;96486.95;109669;1289;22217;-80
2023/12/01 07:00:37;;;;;;;160.00;113.80;;;;;;;-1.17;92.85;96488.60;109639;1289;22886;-80
2023/12/01 07:03:07;;;;;;;116.40;92.90;;;;;;;-1.13;92.92;96500.17;109657;1289;22955;-81
2023/12/01 07:05:38;;;;;;;116.50;90.40;;;;;;;-1.10;92.92;96496.43;109653;1284;22205;-82
2023/12/01 07:08:14;;;;;;;125.40;92.40;;;;;;;-1.08;93.14;96500.00;109644;1289;22208;-83
2023/12/01 07:10:44;;;;;;;103.70;88.20;;;;;;;-1.05;93.56;96503.50;109584;1289;23051;-82
2023/12/01 07:13:12;;;;;;;109.90;89.70;;;;;;;-1.00;93.74;96497.34;109629;1286;22245;-84
2023/12/01 07:15:41;;;;;;;108.20;89.30;;;;;;;-0.96;93.74;96507.19;109719;1287;22237;-84
2023/12/01 07:18:09;;;;;;;164.50;109.00;;;;;;;-0.91;93.60;96518.62;109681;1289;22834;-80
2023/12/01 07:20:38;;;;;;;148.10;100.60;;;;;;;-0.80;93.82;96518.71;109640;1285;22978;-82
2023/12/01 07:23:06;;;;;;;153.00;104.00;;;;;;;-0.71;93.24;96522.71;109652;1289;22243;-81
2023/12/01 07:25:36;;;;;;;152.20;102.20;;;;;;;-0.72;93.08;96514.30;109644;1286;22257;-81
2023/12/01 07:28:06;;;;;;;157.40;104.50;;;;;;;-0.74;93.34;96515.83;109630;1273;22707;-81
2023/12/01 07:30:34;;;;;;;146.80;104.80;;;;;;;-0.75;93.67;96523.17;109624;1289;22352;-82
2023/12/01 07:33:05;;;;;;;146.50;103.10;;;;;;;-0.73;93.76;96530.33;109635;1273;22160;-82
2023/12/01 07:35:34;;;;;;;156.90;103.20;;;;;;;-0.73;93.72;96539.04;109637;1285;22328;-80
2023/12/01 07:38:04;;;;;;;153.70;104.60;;;;;;;-0.73;93.64;96554.55;109630;1285;22292;-83
2023/12/01 07:40:32;;;;;;;148.80;100.30;;;;;;;-0.71;93.69;96549.27;109506;1289;22970;-84
2023/12/01 07:43:02;;;;;;;140.30;97.80;;;;;;;-0.61;93.78;96541.42;109692;1287;22225;-86
2023/12/01 07:45:31;;;;;;;143.40;101.60;;;;;;;-0.52;93.95;96535.14;109642;1273;22207;-84
2023/12/01 07:47:59;;;;;;;141.30;106.10;;;;;;;-0.43;94.32;96530.94;109543;1289;22205;-83
2023/12/01 07:50:27;;;;;;;155.50;109.90;;;;;;;-0.35;94.14;96531.38;109533;1277;22441;-83
2023/12/01 07:52:55;;;;;;;157.80;106.00;;;;;;;-0.33;94.01;96528.85;109516;1283;23076;-84
2023/12/01 07:55:24;;;;;;;156.70;107.80;;;;;;;-0.28;94.06;96526.30;109593;1274;22450;-83
2023/12/01 07:57:52;;;;;;;152.20;103.30;;;;;;;-0.24;94.20;96522.08;109631;1278;22300;-84
2023/12/01 08:00:21;;;;;;;123.40;89.80;;;;;;;-0.14;94.24;96525.09;109591;1273;22732;-83
2023/12/01 08:02:52;;;;;;;87.60;75.30;;;;;;;-0.01;94.27;96528.77;109621;1289;22337;-84
2023/12/01 08:05:23;;;;;;;151.20;103.20;;;;;;;0.08;94.00;96537.41;109592;1286;22194;-83
2023/12/01 08:07:53;;;;;;;194.30;130.00;;;;;;;0.11;93.91;96552.29;109604;1283;22261;-84
2023/12/01 08:10:25;;;;;;;143.50;105.30;;;;;;;0.12;93.94;96555.83;109664;1279;22193;-85
2023/12/01 08:12:57;;;;;;;138.00;102.90;;;;;;;0.13;94.01;96555.63;109643;1273;22388;-83
2023/12/01 08:15:27;;;;;;;139.10;103.60;;;;;;;0.14;94.05;96556.10;109617;1270;22249;-83
2023/12/01 08:18:00;;;;;;;128.40;97.90;;;;;;;0.19;94.14;96542.91;109528;1279;22417;-81
2023/12/01 08:20:29;;;;;;;144.70;99.60;;;;;;;0.25;94.06;96543.55;109578;1285;22217;-83
2023/12/01 08:22:59;;;;;;;137.00;95.30;;;;;;;0.31;94.01;96548.84;109583;1286;22128;-85
2023/12/01 08:25:27;;;;;;;103.90;81.60;;;;;;;0.38;93.84;96555.57;109572;1289;22414;-84
2023/12/01 08:27:55;;;;;;;88.90;75.70;;;;;;;0.49;94.00;96560.86;109562;1283;22460;-83
2023/12/01 08:30:23;;;;;;;85.70;73.90;;;;;;;0.62;93.90;96556.92;109422;1274;22176;-81
2023/12/01 08:32:55;;;;;;;84.60;74.90;;;;;;;0.80;94.21;96553.93;109547;1288;22197;-84
2023/12/01 08:35:24;;;;;;;84.30;69.90;;;;;;;0.94;94.13;96559.14;109571;1283;22294;-82
2023/12/01 08:37:53;;;;;;;74.40;66.60;;;;;;;1.03;93.85;96558.64;109595;1282;22234;-82
2023/12/01 08:40:22;;;;;;;74.10;66.20;;;;;;;1.12;93.81;96559.79;109585;1283;23049;-84
2023/12/01 08:42:53;;;;;;;67.70;61.10;;;;;;;1.25;93.96;96564.94;109452;1284;22285;-84
2023/12/01 08:45:21;;;;;;;66.60;59.90;;;;;;;1.39;94.10;96571.30;109586;1289;22225;-84
2023/12/01 08:47:51;;;;;;;66.10;59.60;;;;;;;1.49;93.76;96572.95;109465;1286;23406;-83
2023/12/01 08:50:21;;;;;;;71.60;64.20;;;;;;;1.55;93.31;96576.86;109650;1283;22330;-84
2023/12/01 08:52:49;;;;;;;61.80;55.80;;;;;;;1.59;93.04;96583.85;109581;1279;22232;-83
2023/12/01 08:55:17;;;;;;;59.60;53.80;;;;;;;1.67;93.06;96586.88;109597;1286;22587;-83
2023/12/01 08:57:45;;;;;;;62.10;55.70;;;;;;;1.77;92.98;96585.13;109585;1289;22217;-83
2023/12/01 09:00:18;;;;;;;67.40;60.50;;;;;;;1.85;92.47;96583.87;109587;1283;22115;-85
2023/12/01 09:02:49;;;;;;;63.60;56.80;;;;;;;1.90;92.06;96577.69;109700;1282;22128;-83
2023/12/01 09:05:18;;;;;;;70.20;62.70;;;;;;;1.94;92.07;96574.52;109599;1290;22912;-84
2023/12/01 09:07:49;;;;;;;69.40;62.60;;;;;;;2.01;92.38;96570.70;109585;1282;22192;-79
2023/12/01 09:10:19;;;;;;;72.40;65.30;;;;;;;2.09;92.48;96573.05;109580;1289;22930;-84
2023/12/01 09:12:50;;;;;;;73.70;66.80;;;;;;;2.08;91.83;96581.34;109578;1286;22421;-82
2023/12/01 09:15:21;;;;;;;73.90;66.60;;;;;;;1.99;91.58;96581.70;109611;1286;22797;-84
2023/12/01 09:17:51;;;;;;;72.60;65.10;;;;;;;1.96;91.84;96570.20;109621;1276;22929;-84
2023/12/01 09:20:20;;;;;;;68.60;61.70;;;;;;;2.02;92.13;96561.61;109573;1290;22250;-83
2023/12/01 09:22:48;;;;;;;72.80;65.70;;;;;;;1.98;91.38;96556.91;109573;1277;22145;-85
2023/12/01 09:25:17;;;;;;;66.10;59.60;;;;;;;1.93;91.23;96560.39;109586;1286;22192;-85
2023/12/01 09:27:45;;;;;;;66.90;60.00;;;;;;;1.90;91.22;96561.59;109564;1286;22222;-82
2023/12/01 09:30:16;;;;;;;67.00;60.40;;;;;;;1.94;91.15;96569.96;109593;1286;22147;-83
2023/12/01 09:32:46;;;;;;;79.40;71.30;;;;;;;1.99;91.28;96572.30;109560;1277;23069;-83
2023/12/01 09:35:15;;;;;;;74.70;67.00;;;;;;;2.00;90.42;96585.95;109586;1282;22540;-82
2023/12/01 09:38:04;;;;;;;106.80;85.70;;;;;;;2.01;90.62;96588.98;109547;1289;22248;-84
2023/12/01 09:40:38;;;;;;;88.60;76.70;;;;;;;2.03;90.44;96589.83;109583;1284;22268;-84
2023/12/01 09:43:07;;;;;;;96.00;82.20;;;;;;;2.01;90.31;96598.75;109572;1285;22204;-85
2023/12/01 09:45:36;;;;;;;172.80;121.00;;;;;;;1.98;90.41;96608.02;109554;1286;22228;-84
2023/12/01 09:48:08;;;;;;;124.70;96.60;;;;;;;2.00;90.79;96599.83;109466;1286;22357;-83
2023/12/01 09:50:37;;;;;;;158.40;122.40;;;;;;;2.05;90.33;96596.50;109591;1283;22298;-83
2023/12/01 09:53:05;;;;;;;91.20;81.90;;;;;;;2.08;90.05;96585.17;109589;1280;22318;-82
2023/12/01 09:55:33;;;;;;;96.80;86.20;;;;;;;2.08;90.22;96583.94;109579;1283;22234;-83
2023/12/01 09:58:02;;;;;;;116.60;103.50;;;;;;;2.11;90.15;96589.39;109570;1284;23140;-84
2023/12/01 10:00:30;;;;;;;79.70;72.10;;;;;;;2.11;89.54;96589.92;109602;1273;22396;-82
2023/12/01 10:02:58;;;;;;;71.70;64.60;;;;;;;2.09;89.73;96592.70;109601;1277;22160;-82
2023/12/01 10:05:26;;;;;;;74.90;67.20;;;;;;;2.14;89.54;96592.41;109639;1283;22312;-82
2023/12/01 10:07:54;;;;;;;74.20;67.20;;;;;;;2.21;89.48;96584.80;109655;1267;22362;-82
2023/12/01 10:10:26;;;;;;;73.20;66.50;;;;;;;2.31;89.68;96582.23;109708;1283;22191;-81
2023/12/01 10:13:03;;;;;;;71.20;63.80;;;;;;;2.40;89.46;96578.29;109713;1282;22253;-83
2023/12/01 10:16:23;;;;;;;71.40;64.40;;;;;;;2.48;89.20;96574.40;109635;1276;22295;-84
2023/12/01 10:19:00;;;;;;;126.30;93.20;;;;;;;2.58;89.21;96561.76;109612;1290;23070;-83
2023/12/01 10:21:45;;;;;;;81.00;72.50;;;;;;;2.68;89.41;96556.51;109419;1289;22218;-84
2023/12/01 10:24:13;;;;;;;107.50;87.40;;;;;;;2.76;89.02;96567.61;109558;1289;22309;-83
2023/12/01 10:26:43;;;;;;;184.30;125.40;;;;;;;2.76;88.29;96575.64;109564;1289;22135;-83
2023/12/01 10:29:28;;;;;;;137.10;98.10;;;;;;;2.82;88.84;96557.92;109602;1287;22931;-83
2023/12/01 10:32:04;;;;;;;80.20;71.90;;;;;;;2.94;88.76;96549.34;109632;1290;22260;-82
2023/12/01 10:34:33;;;;;;;67.90;61.10;;;;;;;3.01;88.21;96553.52;109576;1276;22228;-83
2023/12/01 10:37:03;;;;;;;69.40;62.00;;;;;;;3.12;88.11;96550.26;109675;1276;22232;-87
2023/12/01 10:39:31;;;;;;;69.00;62.00;;;;;;;3.30;88.62;96550.58;109743;1281;22313;-85
2023/12/01 10:41:59;;;;;;;73.30;65.50;;;;;;;3.47;88.26;96555.38;109783;1283;22156;-89
2023/12/01 10:44:35;;;;;;;67.40;60.60;;;;;;;3.53;87.72;96566.44;109671;1281;22260;-87
2023/12/01 10:47:04;;;;;;;62.70;56.20;;;;;;;3.49;87.44;96568.52;109717;1286;22846;-91
2023/12/01 10:49:34;;;;;;;64.80;58.00;;;;;;;3.39;87.36;96580.78;109649;1282;22989;-87
2023/12/01 10:52:08;;;;;;;60.80;54.90;;;;;;;3.27;86.92;96574.00;109665;1282;23009;-93
2023/12/01 10:54:41;;;;;;;62.50;58.50;;;;;;;3.20;87.34;96561.76;109641;1289;22053;-90
2023/12/01 10:57:30;;;;;;;61.80;56.00;;;;;;;3.12;87.05;96559.20;109631;1277;22238;-89
2023/12/01 11:00:00;;;;;;;57.50;52.00;;;;;;;3.10;86.94;96547.88;109569;1280;22237;-86
2023/12/01 11:02:30;;;;;;;69.30;62.10;;;;;;;3.10;86.99;96543.41;109586;1282;22166;-86
2023/12/01 11:04:59;;;;;;;123.50;94.90;;;;;;;3.09;86.72;96534.05;109564;1286;22249;-86
2023/12/01 11:07:44;;;;;;;89.30;77.40;;;;;;;3.11;86.99;96534.94;109577;1289;22270;-85
2023/12/01 11:10:22;;;;;;;89.70;80.10;;;;;;;3.12;86.49;96541.31;109585;1289;22434;-82
2023/12/01 11:13:25;;;;;;;83.80;75.40;;;;;;;3.08;86.13;96551.36;109648;1289;22144;-84
2023/12/01 11:15:56;;;;;;;101.40;90.30;;;;;;;2.98;86.16;96559.34;109259;1281;22154;-85
2023/12/01 11:18:24;;;;;;;71.30;64.10;;;;;;;2.94;85.69;96559.50;109597;1277;22231;-87